Time;durP1;ratioP1;P1;durP2;ratioP2;P2;SDS_P1;SDS_P2;PMS_P1;PMS_P2;Temp;Humidity;BMP_temperature;BMP_pressure;BME280_temperature;BME280_humidity;BME280_pressure;Samples;Min_cycle;Max_cycle;Signal;HPM_P1;HPM_P2
2023/08/04 00:01:04;;;;;;;6.13;3.22;;;;;;;14.61;100.00;101135.00;6088526;19;20006;-72
2023/08/04 00:03:09;;;;;;;13.27;3.53;;;;;;;14.60;100.00;101128.88;6099103;19;20006;-72
2023/08/04 00:05:17;;;;;;;7.88;3.33;;;;;;;14.61;100.00;101135.00;6077466;19;20031;-72
2023/08/04 00:07:22;;;;;;;9.35;3.30;;;;;;;14.64;100.00;101133.06;6096758;19;20006;-70
2023/08/04 00:09:27;;;;;;;14.00;4.05;;;;;;;14.63;100.00;101130.50;6097416;19;20318;-70
2023/08/04 00:11:32;;;;;;;9.32;3.75;;;;;;;14.62;100.00;101132.28;6093096;19;20038;-70
2023/08/04 00:13:40;;;;;;;14.20;3.67;;;;;;;14.62;100.00;101132.28;6096384;19;20010;-70
2023/08/04 00:15:42;;;;;;;9.07;3.40;;;;;;;14.58;100.00;101124.59;6100292;19;20017;-70
2023/08/04 00:17:47;;;;;;;13.07;3.88;;;;;;;14.60;100.00;101141.25;6092596;19;20031;-72
2023/08/04 00:19:52;;;;;;;9.60;3.45;;;;;;;14.61;100.00;101137.66;6095150;19;20761;-70
2023/08/04 00:22:00;;;;;;;7.78;3.38;;;;;;;14.59;100.00;101137.75;6085086;19;20046;-72
2023/08/04 00:24:05;;;;;;;10.55;3.10;;;;;;;14.57;100.00;101142.25;6092607;19;20007;-72
2023/08/04 00:26:10;;;;;;;5.20;3.08;;;;;;;14.58;100.00;101143.09;6082928;19;20010;-72
2023/08/04 00:28:15;;;;;;;7.90;3.60;;;;;;;14.58;100.00;101130.72;6087905;19;20776;-72
2023/08/04 00:30:23;;;;;;;6.55;3.58;;;;;;;14.58;100.00;101132.53;6083227;19;20010;-71
2023/08/04 00:32:29;;;;;;;9.88;3.67;;;;;;;14.55;100.00;101130.91;6084607;19;20326;-71
2023/08/04 00:34:35;;;;;;;8.15;3.00;;;;;;;14.57;100.00;101134.31;6085567;19;20042;-71
2023/08/04 00:36:40;;;;;;;9.45;3.35;;;;;;;14.60;100.00;101135.94;6082233;19;22092;-72
2023/08/04 00:38:45;;;;;;;7.07;3.22;;;;;;;14.58;100.00;101137.81;6082218;19;20493;-73
2023/08/04 00:40:50;;;;;;;8.35;3.25;;;;;;;14.53;100.00;101138.06;6084020;19;20030;-72
2023/08/04 00:42:55;;;;;;;9.23;3.45;;;;;;;14.56;100.00;101143.22;6079026;19;20215;-71
2023/08/04 00:45:00;;;;;;;10.93;3.10;;;;;;;14.60;100.00;101138.59;6083139;19;20619;-71
2023/08/04 00:47:08;;;;;;;6.68;2.95;;;;;;;14.58;100.00;101137.81;6081056;19;20014;-73
2023/08/04 00:49:13;;;;;;;10.18;3.47;;;;;;;14.59;100.00;101140.41;6082756;19;20007;-72
2023/08/04 00:51:19;;;;;;;9.02;3.13;;;;;;;14.55;100.00;101146.75;6081676;19;20307;-73
2023/08/04 00:53:29;;;;;;;8.93;3.47;;;;;;;14.55;100.00;101135.34;6081990;19;20597;-71
2023/08/04 00:55:35;;;;;;;8.73;3.85;;;;;;;14.55;100.00;101145.91;6074865;19;20007;-72
2023/08/04 00:57:41;;;;;;;7.78;3.17;;;;;;;14.54;100.00;101147.72;6081625;19;20483;-72
2023/08/04 00:59:44;;;;;;;7.28;2.97;;;;;;;14.55;100.00;101146.75;6077761;19;20541;-71
2023/08/04 01:01:54;;;;;;;8.75;3.83;;;;;;;14.54;100.00;101146.88;6085949;19;20014;-72
2023/08/04 01:04:06;;;;;;;8.90;3.17;;;;;;;14.53;100.00;101153.91;6095969;19;20007;-72
2023/08/04 01:06:17;;;;;;;9.07;2.80;;;;;;;14.60;100.00;101155.31;6097755;19;20011;-70
2023/08/04 01:08:25;;;;;;;9.70;3.92;;;;;;;14.57;100.00;101154.63;6086289;19;20010;-71
2023/08/04 01:10:38;;;;;;;9.95;3.55;;;;;;;14.55;100.00;101149.41;6093954;19;20014;-71
2023/08/04 01:12:51;;;;;;;7.00;3.20;;;;;;;14.55;100.00;101151.19;6099749;19;20068;-72
2023/08/04 01:14:57;;;;;;;8.02;2.42;;;;;;;14.59;100.00;101150.13;6101264;19;20027;-72
2023/08/04 01:17:05;;;;;;;8.13;3.13;;;;;;;14.59;100.00;101150.13;6099050;19;21818;-70
2023/08/04 01:19:13;;;;;;;10.23;3.10;;;;;;;14.58;100.00;101156.31;6099631;19;20043;-71
2023/08/04 01:21:20;;;;;;;4.97;2.60;;;;;;;14.55;100.00;101160.00;6095621;19;20010;-72
2023/08/04 01:23:25;;;;;;;5.38;2.78;;;;;;;14.58;100.00;101151.03;6095349;19;20034;-72
2023/08/04 01:25:35;;;;;;;7.10;3.00;;;;;;;14.53;100.00;101145.97;6093632;19;20002;-71
2023/08/04 01:27:44;;;;;;;8.63;3.83;;;;;;;14.53;100.00;101147.78;6090967;19;20015;-71
2023/08/04 01:29:49;;;;;;;5.82;2.97;;;;;;;14.54;100.00;101155.66;6095118;19;20022;-71
2023/08/04 01:31:54;;;;;;;5.25;2.63;;;;;;;14.48;100.00;101148.84;6096940;19;20002;-71
2023/08/04 01:33:59;;;;;;;10.02;2.83;;;;;;;14.49;100.00;101153.19;6094645;19;20023;-70
2023/08/04 01:36:05;;;;;;;9.18;3.28;;;;;;;14.48;100.00;101153.25;6091504;19;20348;-71
2023/08/04 01:38:13;;;;;;;11.82;3.80;;;;;;;14.46;100.00;101156.00;6089405;19;20035;-72
2023/08/04 01:40:18;;;;;;;6.47;3.22;;;;;;;14.46;100.00;101158.66;6090809;19;20015;-72
2023/08/04 01:42:20;;;;;;;6.47;3.00;;;;;;;14.44;100.00;101155.22;6069206;19;20113;-73
2023/08/04 01:44:25;;;;;;;8.55;3.80;;;;;;;14.45;100.00;101156.91;6089386;19;20060;-71
2023/08/04 01:46:30;;;;;;;10.88;3.15;;;;;;;14.48;100.00;101169.13;6094753;19;20077;-71
2023/08/04 01:48:34;;;;;;;8.93;3.17;;;;;;;14.46;100.00;101160.44;6089177;19;20015;-71
2023/08/04 01:50:39;;;;;;;10.82;3.50;;;;;;;14.49;100.00;101168.22;6090200;19;20010;-71
2023/08/04 01:52:45;;;;;;;8.60;3.08;;;;;;;14.52;100.00;101161.91;6090084;19;20029;-71
2023/08/04 01:54:53;;;;;;;7.90;3.28;;;;;;;14.58;100.00;101161.63;6097544;19;20049;-71
2023/08/04 01:56:58;;;;;;;6.70;3.42;;;;;;;14.61;100.00;101164.97;6089671;19;20700;-71
2023/08/04 01:59:03;;;;;;;6.10;3.20;;;;;;;14.62;100.00;101173.75;6099175;19;20010;-71
2023/08/04 02:01:08;;;;;;;6.07;2.75;;;;;;;14.64;100.00;101171.88;6095299;19;20023;-71
2023/08/04 02:03:13;;;;;;;10.65;3.78;;;;;;;14.65;100.00;101169.16;6094248;19;20018;-72
2023/08/04 02:05:18;;;;;;;7.10;3.15;;;;;;;14.69;100.00;101168.06;6102070;19;20011;-72
2023/08/04 02:07:23;;;;;;;7.68;3.17;;;;;;;14.78;100.00;101168.53;6093541;19;20003;-72
2023/08/04 02:09:36;;;;;;;7.47;3.20;;;;;;;14.78;100.00;101169.38;6095082;19;20494;-72
2023/08/04 02:11:43;;;;;;;;;;;;;;;14.74;100.00;101175.75;6091817;19;20026;-70
2023/08/04 02:13:49;;;;;;;12.48;3.22;;;;;;;14.81;100.00;101171.00;6091605;19;19939;-73
2023/08/04 02:15:55;;;;;;;8.00;2.78;;;;;;;14.78;100.00;101173.81;6092516;19;20472;-73
2023/08/04 02:18:00;;;;;;;7.68;2.90;;;;;;;14.79;100.00;101180.81;6094692;19;20084;-72
2023/08/04 02:20:10;;;;;;;5.47;2.92;;;;;;;14.74;100.00;101183.69;6096946;19;20321;-73
2023/08/04 02:22:17;;;;;;;7.95;2.92;;;;;;;14.67;100.00;101177.03;6098753;19;20010;-72
2023/08/04 02:24:22;;;;;;;6.03;2.92;;;;;;;14.72;100.00;101185.56;6098079;19;20169;-73
2023/08/04 02:26:27;;;;;;;7.70;3.03;;;;;;;14.63;100.00;101180.75;6099247;19;20250;-71
2023/08/04 02:28:35;;;;;;;8.50;3.47;;;;;;;14.54;100.00;101186.53;6102660;19;20006;-71
2023/08/04 02:30:40;;;;;;;7.47;2.83;;;;;;;14.56;100.00;101200.50;6091187;19;20015;-70
2023/08/04 02:32:45;;;;;;;4.43;2.72;;;;;;;14.53;100.00;101200.66;6098188;19;20040;-70
2023/08/04 02:34:52;;;;;;;7.50;3.22;;;;;;;14.46;100.00;101194.81;6092646;19;20009;-71
2023/08/04 02:37:00;;;;;;;7.50;3.00;;;;;;;14.40;100.00;101197.75;6096137;19;20007;-71
2023/08/04 02:39:05;;;;;;;10.77;3.08;;;;;;;14.41;100.00;101191.56;6097163;19;20002;-71
2023/08/04 02:41:11;;;;;;;10.20;3.33;;;;;;;14.38;100.00;101197.84;6100990;19;20062;-71
2023/08/04 02:43:16;;;;;;;5.97;3.30;;;;;;;14.43;100.00;101200.28;6101384;19;21104;-70
2023/08/04 02:45:23;;;;;;;8.10;3.25;;;;;;;14.40;100.00;101201.28;6090980;19;20019;-71
2023/08/04 02:47:33;;;;;;;8.88;2.95;;;;;;;14.41;100.00;101202.97;6092312;19;20615;-71
2023/08/04 02:49:38;;;;;;;9.55;3.28;;;;;;;14.40;100.00;101205.69;6096382;19;20018;-71
2023/08/04 02:51:44;;;;;;;7.60;2.45;;;;;;;14.42;100.00;101207.31;6101683;19;20007;-69
2023/08/04 02:53:51;;;;;;;5.55;2.90;;;;;;;14.39;100.00;101204.00;6093620;19;20010;-72
2023/08/04 02:55:53;;;;;;;7.57;2.92;;;;;;;14.42;100.00;101201.19;6097663;19;20013;-72
2023/08/04 02:58:00;;;;;;;8.45;2.58;;;;;;;14.47;100.00;101205.31;6094020;19;20015;-72
2023/08/04 03:00:11;;;;;;;10.52;3.20;;;;;;;14.40;100.00;101203.94;6100268;19;20703;-71
2023/08/04 03:02:22;;;;;;;8.00;2.95;;;;;;;14.38;100.00;101199.66;6101660;19;20420;-71
2023/08/04 03:04:27;;;;;;;8.60;2.92;;;;;;;14.37;100.00;101203.22;6098992;19;20039;-71
2023/08/04 03:06:32;;;;;;;6.25;2.20;;;;;;;14.34;100.00;101206.84;6109588;19;20090;-70
2023/08/04 03:08:37;;;;;;;6.22;2.42;;;;;;;14.35;100.00;101208.59;6110677;19;20142;-70
2023/08/04 03:10:43;;;;;;;7.22;2.90;;;;;;;14.37;100.00;101204.06;6112414;19;20129;-70
2023/08/04 03:12:48;;;;;;;6.20;2.90;;;;;;;14.36;100.00;101205.00;6115124;19;20011;-70
2023/08/04 03:14:53;;;;;;;5.95;2.53;;;;;;;14.37;100.00;101203.22;6117351;19;20022;-70
2023/08/04 03:16:58;;;;;;;6.72;3.10;;;;;;;14.38;100.00;101205.78;6118414;19;20015;-71
2023/08/04 03:19:05;;;;;;;6.95;3.22;;;;;;;14.40;100.00;101206.56;6115678;19;20380;-73
2023/08/04 03:21:11;;;;;;;6.53;2.90;;;;;;;14.41;100.00;101202.97;6106015;19;20716;-72
2023/08/04 03:23:19;;;;;;;7.20;2.85;;;;;;;14.45;100.00;101208.97;6101287;19;20085;-70
2023/08/04 03:25:24;;;;;;;7.40;2.80;;;;;;;14.53;100.00;101205.97;6105155;19;20046;-73
2023/08/04 03:27:29;;;;;;;6.20;3.05;;;;;;;14.57;100.00;101211.03;6101875;19;20078;-71
2023/08/04 03:29:36;;;;;;;8.38;3.00;;;;;;;14.58;100.00;101212.72;6098860;19;20011;-71
2023/08/04 03:31:40;;;;;;;6.28;2.88;;;;;;;14.60;100.00;101218.78;6095593;19;20011;-71
2023/08/04 03:33:46;;;;;;;7.82;3.55;;;;;;;14.61;100.00;101215.22;6096317;19;20002;-71
2023/08/04 03:35:50;;;;;;;8.30;3.55;;;;;;;14.69;100.00;101220.97;6098282;19;20581;-71
2023/08/04 03:37:57;;;;;;;8.95;3.10;;;;;;;14.73;100.00;101218.16;6096447;19;20402;-71
2023/08/04 03:40:02;;;;;;;7.45;3.42;;;;;;;14.78;100.00;101216.16;6100822;19;20025;-73
2023/08/04 03:42:08;;;;;;;5.72;3.03;;;;;;;14.79;100.00;101213.41;6095547;19;20017;-70
2023/08/04 03:44:13;;;;;;;11.20;3.35;;;;;;;14.78;100.00;101227.56;6090369;19;20034;-71
2023/08/04 03:46:21;;;;;;;7.90;2.95;;;;;;;14.82;100.00;101228.25;6094580;19;20011;-71
2023/08/04 03:48:26;;;;;;;7.80;3.55;;;;;;;14.82;100.00;101229.09;6090970;19;20618;-71
2023/08/04 03:50:31;;;;;;;10.50;3.17;;;;;;;14.80;100.00;101228.34;6093140;19;20046;-71
2023/08/04 03:52:40;;;;;;;6.72;2.75;;;;;;;14.86;100.00;101232.47;6099291;19;20023;-71
2023/08/04 03:54:43;;;;;;;7.65;3.20;;;;;;;14.85;100.00;101234.28;6091242;19;20925;-71
2023/08/04 03:56:49;;;;;;;5.60;2.80;;;;;;;14.83;100.00;101233.50;6095190;19;20014;-71
2023/08/04 03:58:57;;;;;;;7.47;3.00;;;;;;;14.82;100.00;101233.56;6096138;19;20019;-72
2023/08/04 04:01:02;;;;;;;6.55;2.90;;;;;;;14.82;100.00;101236.19;6093437;19;20018;-72
2023/08/04 04:03:07;;;;;;;8.52;3.25;;;;;;;14.82;100.00;101233.56;6092112;19;20006;-72
2023/08/04 04:05:12;;;;;;;8.45;3.67;;;;;;;14.83;100.00;101241.44;6091885;19;20027;-72
2023/08/04 04:07:17;;;;;;;8.05;3.45;;;;;;;14.80;100.00;101241.59;6092275;19;20380;-72
2023/08/04 04:09:25;;;;;;;5.32;2.83;;;;;;;14.80;100.00;101240.75;6092286;19;20003;-72
2023/08/04 04:11:33;;;;;;;5.40;2.45;;;;;;;14.82;100.00;101244.97;6094278;19;20762;-72
2023/08/04 04:13:38;;;;;;;7.20;2.70;;;;;;;14.80;100.00;101241.59;6095439;19;20357;-72
2023/08/04 04:15:42;;;;;;;8.88;3.15;;;;;;;14.84;100.00;101250.22;6097743;19;20077;-72
2023/08/04 04:17:48;;;;;;;6.20;2.78;;;;;;;14.82;100.00;101249.44;6092323;19;20246;-70
2023/08/04 04:19:54;;;;;;;8.20;3.20;;;;;;;14.84;100.00;101252.84;6092393;19;20077;-71
2023/08/04 04:21:59;;;;;;;7.95;2.90;;;;;;;14.92;100.00;101242.72;6090324;19;20645;-71
2023/08/04 04:24:04;;;;;;;10.05;3.30;;;;;;;14.91;100.00;101248.97;6092841;19;20010;-73
2023/08/04 04:26:11;;;;;;;8.48;3.95;;;;;;;14.95;100.00;101252.28;6098146;19;20052;-70
2023/08/04 04:28:13;;;;;;;7.57;2.70;;;;;;;14.93;100.00;101263.81;6074136;19;20081;-71
2023/08/04 04:30:19;;;;;;;8.57;3.05;;;;;;;14.95;100.00;101265.53;6091658;19;21047;-72
2023/08/04 04:32:26;;;;;;;9.02;3.58;;;;;;;14.93;100.00;101266.47;6090085;19;20044;-72
2023/08/04 04:34:32;;;;;;;8.57;3.25;;;;;;;14.97;100.00;101261.88;6075627;19;20010;-72
2023/08/04 04:36:37;;;;;;;7.00;3.33;;;;;;;14.99;100.00;101264.44;6074076;19;20892;-72
2023/08/04 04:38:40;;;;;;;7.43;3.17;;;;;;;15.03;100.00;101263.34;6100509;19;20011;-72
2023/08/04 04:40:45;;;;;;;6.20;3.08;;;;;;;15.04;100.00;101265.06;6090984;19;20093;-72
2023/08/04 04:42:52;;;;;;;6.50;2.90;;;;;;;15.05;100.00;101262.31;6094989;19;20035;-71
2023/08/04 04:44:55;;;;;;;8.00;3.15;;;;;;;15.07;100.00;101272.84;6095512;19;20034;-71
2023/08/04 04:47:04;;;;;;;43.53;15.40;;;;;;;15.08;100.00;101271.88;6092743;19;20010;-71
2023/08/04 04:49:10;;;;;;;12.32;5.47;;;;;;;15.08;100.00;101277.19;6092562;19;20090;-71
2023/08/04 04:51:17;;;;;;;8.05;3.63;;;;;;;15.10;100.00;101270.03;6091013;19;20009;-71
2023/08/04 04:53:22;;;;;;;9.85;4.72;;;;;;;15.10;100.00;101277.97;6091307;19;20015;-70
2023/08/04 04:55:27;;;;;;;9.55;3.90;;;;;;;15.16;100.00;101288.22;6093698;19;20082;-71
2023/08/04 04:57:37;;;;;;;6.63;3.20;;;;;;;15.20;100.00;101284.50;6088393;19;20018;-71
2023/08/04 04:59:45;;;;;;;9.68;3.60;;;;;;;15.21;100.00;101298.59;6092143;19;20018;-71
2023/08/04 05:01:50;;;;;;;7.55;3.47;;;;;;;15.21;100.00;101294.13;6071602;19;20490;-71
2023/08/04 05:03:56;;;;;;;10.77;3.67;;;;;;;15.24;100.00;101299.25;6087606;19;20011;-72
2023/08/04 05:06:01;;;;;;;10.52;4.25;;;;;;;15.21;100.00;101291.47;6093638;19;20017;-71
2023/08/04 05:08:07;;;;;;;7.60;3.10;;;;;;;15.24;100.00;101296.63;6087893;19;20003;-74
2023/08/04 05:10:13;;;;;;;11.27;4.05;;;;;;;15.23;100.00;101294.91;6073091;19;20026;-72
2023/08/04 05:12:18;;;;;;;7.88;3.13;;;;;;;15.24;100.00;101301.06;6073933;19;20019;-72
2023/08/04 05:14:23;;;;;;;11.35;3.65;;;;;;;15.26;100.00;101296.53;6085074;19;20101;-73
2023/08/04 05:16:30;;;;;;;8.35;2.92;;;;;;;15.29;100.00;101302.53;6092128;19;20710;-72
2023/08/04 05:18:35;;;;;;;7.80;3.38;;;;;;;15.36;100.00;101309.22;6093569;19;20050;-72
2023/08/04 05:20:42;;;;;;;8.73;3.70;;;;;;;15.40;100.00;101306.41;6092733;19;20007;-72
2023/08/04 05:22:47;;;;;;;8.48;2.90;;;;;;;15.37;100.00;101316.22;6090097;19;20011;-71
2023/08/04 05:24:52;;;;;;;8.00;3.75;;;;;;;15.36;100.00;101311.88;6095045;19;20058;-71
2023/08/04 05:27:14;;;;;;;9.27;3.25;;;;;;;15.39;100.00;101313.50;6094845;19;20011;-73
2023/08/04 05:29:19;;;;;;;8.70;3.33;;;;;;;15.36;100.00;101318.97;6092874;19;20777;-72
2023/08/04 05:31:25;;;;;;;7.82;2.78;;;;;;;15.39;100.00;101315.28;6095531;19;20016;-70
2023/08/04 05:33:34;;;;;;;8.68;2.90;;;;;;;15.36;100.00;101319.81;6093677;19;20933;-71
2023/08/04 05:35:40;;;;;;;8.25;3.13;;;;;;;15.34;100.00;101320.81;6089196;19;20018;-72
2023/08/04 05:37:45;;;;;;;6.82;2.90;;;;;;;15.33;100.00;101319.97;6091740;19;20015;-71
2023/08/04 05:39:51;;;;;;;5.53;3.10;;;;;;;15.30;100.00;101324.59;6099329;19;20046;-70
2023/08/04 05:41:55;;;;;;;10.27;2.80;;;;;;;15.34;100.00;101332.25;6092125;19;20364;-72
2023/08/04 05:44:00;;;;;;;7.75;2.50;;;;;;;15.35;100.00;101327.84;6092496;19;20813;-71
2023/08/04 05:46:12;;;;;;;10.18;3.33;;;;;;;15.32;100.00;101342.09;6067503;19;20540;-71
2023/08/04 05:48:17;;;;;;;6.18;2.65;;;;;;;15.25;100.00;101334.56;6099336;19;20011;-70
2023/08/04 05:50:25;;;;;;;6.03;2.63;;;;;;;15.29;100.00;101339.59;6091667;19;20010;-71
2023/08/04 05:52:30;;;;;;;6.78;2.60;;;;;;;15.26;100.00;101337.13;6085477;19;20007;-71
2023/08/04 05:54:35;;;;;;;5.25;2.47;;;;;;;15.27;100.00;101344.13;6090276;19;20003;-71
2023/08/04 05:56:40;;;;;;;7.85;2.70;;;;;;;15.34;100.00;101342.84;6093965;19;20011;-71
2023/08/04 05:58:49;;;;;;;9.13;4.00;;;;;;;15.26;100.00;101341.56;6094240;19;20010;-70
2023/08/04 06:00:55;;;;;;;8.13;2.70;;;;;;;15.31;100.00;101345.66;6092969;19;20432;-70
2023/08/04 06:03:00;;;;;;;7.32;2.80;;;;;;;15.29;100.00;101344.03;6089443;19;20010;-71
2023/08/04 06:05:11;;;;;;;6.80;2.90;;;;;;;15.30;100.00;101341.31;6096800;19;20026;-70
2023/08/04 06:07:24;;;;;;;6.65;2.83;;;;;;;15.47;100.00;101352.81;6101682;19;20006;-69
2023/08/04 06:09:29;;;;;;;6.47;2.65;;;;;;;15.45;100.00;101355.53;6100011;19;20083;-72
2023/08/04 06:11:34;;;;;;;7.30;3.15;;;;;;;15.43;100.00;101354.78;6102858;19;20022;-71
2023/08/04 06:13:39;;;;;;;7.50;2.63;;;;;;;15.47;100.00;101358.97;6106542;19;20057;-71
2023/08/04 06:15:44;;;;;;;6.00;3.05;;;;;;;15.47;100.00;101360.75;6107963;19;20014;-70
2023/08/04 06:17:49;;;;;;;8.05;2.83;;;;;;;15.49;100.00;101366.84;6107762;19;20640;-71
2023/08/04 06:19:56;;;;;;;8.52;3.40;;;;;;;15.57;100.00;101368.16;6103290;19;20098;-70
2023/08/04 06:22:01;;;;;;;5.55;2.80;;;;;;;15.67;100.00;101368.53;6107441;19;20010;-70
2023/08/04 06:24:08;;;;;;;6.50;3.38;;;;;;;15.69;100.00;101368.44;6106173;19;20022;-69
2023/08/04 06:26:13;;;;;;;11.52;3.03;;;;;;;15.71;100.00;101372.72;6048565;19;21436;-71
2023/08/04 06:28:18;;;;;;;10.93;3.80;;;;;;;15.78;100.00;101374.13;6100149;19;20028;-72
2023/08/04 06:30:23;;;;;;;9.18;3.75;;;;;;;15.84;100.00;101372.94;6069864;19;20023;-71
2023/08/04 06:32:26;;;;;;;6.00;2.70;;;;;;;15.91;100.00;101379.63;6075640;19;20475;-73
2023/08/04 06:34:32;;;;;;;8.00;3.45;;;;;;;15.97;100.00;101379.28;6098264;19;20006;-72
2023/08/04 06:36:39;;;;;;;6.13;2.75;;;;;;;16.07;100.00;101384.94;6097653;19;20011;-71
2023/08/04 06:38:47;;;;;;;9.32;3.33;;;;;;;16.12;100.00;101377.59;6095249;19;20042;-70
2023/08/04 06:40:57;;;;;;;6.00;2.30;;;;;;;16.28;100.00;101382.06;6092779;19;20018;-71
2023/08/04 06:45:20;;;;;;;7.28;2.92;;;;;;;16.44;100.00;101388.19;6093427;19;20859;-71
2023/08/04 06:47:25;;;;;;;5.78;2.47;;;;;;;16.35;100.00;101389.59;6095697;19;20343;-71
2023/08/04 06:49:31;;;;;;;9.60;3.33;;;;;;;16.29;100.00;101389.91;6096174;19;20011;-71
2023/08/04 06:51:35;;;;;;;7.72;2.50;;;;;;;16.35;100.00;101388.69;6091267;19;20020;-72
2023/08/04 06:53:41;;;;;;;5.95;2.58;;;;;;;16.42;100.00;101388.28;6091704;19;20018;-71
2023/08/04 06:55:46;;;;;;;6.07;2.35;;;;;;;16.60;100.00;101389.03;6093583;19;20017;-72
2023/08/04 06:57:53;;;;;;;4.88;2.70;;;;;;;16.63;98.71;101393.31;6091962;19;20020;-72
2023/08/04 06:59:59;;;;;;;8.07;3.05;;;;;;;16.58;98.86;101396.22;6089034;19;20540;-71
2023/08/04 07:02:10;;;;;;;7.63;2.55;;;;;;;16.46;100.00;101407.53;6091858;19;20014;-71
2023/08/04 07:04:19;;;;;;;5.22;2.50;;;;;;;16.27;100.00;101406.84;6089379;19;21246;-71
2023/08/04 07:06:24;;;;;;;6.07;2.10;;;;;;;16.12;100.00;101406.75;6091193;19;20074;-71
2023/08/04 07:08:29;;;;;;;6.00;2.20;;;;;;;16.04;100.00;101406.31;6099582;19;20015;-71
2023/08/04 07:10:36;;;;;;;5.63;2.50;;;;;;;16.13;100.00;101416.41;6103469;19;20035;-72
2023/08/04 07:12:41;;;;;;;11.20;2.50;;;;;;;16.23;100.00;101414.13;6099421;19;20018;-72
2023/08/04 07:14:48;;;;;;;6.60;2.60;;;;;;;16.13;100.00;101411.09;6096751;19;21201;-72
2023/08/04 07:16:53;;;;;;;6.03;2.88;;;;;;;16.17;100.00;101415.31;6097179;19;20022;-72
2023/08/04 07:18:58;;;;;;;9.73;2.80;;;;;;;16.19;100.00;101418.75;6105269;19;20018;-72
2023/08/04 07:21:08;;;;;;;6.32;2.22;;;;;;;16.17;99.08;101419.78;6101118;19;20014;-71
2023/08/04 07:23:12;;;;;;;7.85;2.78;;;;;;;16.22;98.15;101426.53;6100567;19;20020;-76
2023/08/04 07:25:17;;;;;;;9.30;2.92;;;;;;;16.32;97.66;101426.00;6100305;19;20013;-72
2023/08/04 07:27:23;;;;;;;6.85;2.67;;;;;;;16.38;97.08;101433.66;6098397;19;20773;-73
2023/08/04 07:29:33;;;;;;;7.90;2.97;;;;;;;16.48;97.48;101423.34;6099892;19;20017;-71
2023/08/04 07:31:42;;;;;;;4.03;2.10;;;;;;;16.61;97.16;101430.56;6095513;19;20018;-71
2023/08/04 07:33:44;;;;;;;5.32;2.17;;;;;;;16.76;95.53;101425.31;6097201;19;20034;-72
2023/08/04 07:35:55;;;;;;;13.10;3.03;;;;;;;16.97;95.33;101423.25;6095512;19;20015;-71
2023/08/04 07:38:04;;;;;;;7.88;3.10;;;;;;;17.16;94.55;101428.34;6091018;19;20014;-72
2023/08/04 07:40:11;;;;;;;7.28;2.88;;;;;;;17.45;92.63;101424.81;6092925;19;20014;-72
2023/08/04 07:42:16;;;;;;;10.25;2.78;;;;;;;17.43;90.46;101442.66;6097090;19;20011;-71
2023/08/04 07:44:21;;;;;;;4.93;2.53;;;;;;;17.84;89.86;101430.50;6095079;19;20006;-71
2023/08/04 07:46:28;;;;;;;4.43;2.53;;;;;;;17.85;87.31;101432.19;6092625;19;20015;-71
2023/08/04 07:48:36;;;;;;;5.90;2.40;;;;;;;18.08;85.23;101433.44;6098233;19;20015;-69
2023/08/04 07:50:43;;;;;;;6.95;2.72;;;;;;;18.28;82.43;101435.69;6096869;19;20042;-71
2023/08/04 07:52:48;;;;;;;7.35;2.75;;;;;;;18.42;81.04;101440.97;6095022;19;20024;-72
2023/08/04 07:54:53;;;;;;;6.72;2.50;;;;;;;18.52;81.45;101440.41;6092832;19;20006;-70
2023/08/04 07:57:01;;;;;;;5.68;2.30;;;;;;;18.64;80.04;101431.63;6095489;19;20002;-69
2023/08/04 07:59:08;;;;;;;5.70;2.35;;;;;;;19.28;81.12;101443.38;6093205;19;20006;-70
2023/08/04 08:01:13;;;;;;;6.47;2.40;;;;;;;18.56;84.02;101445.44;6080709;19;20018;-69
2023/08/04 08:03:20;;;;;;;8.38;2.55;;;;;;;17.81;85.58;101449.31;6093815;19;20868;-70
2023/08/04 08:05:28;;;;;;;7.40;2.40;;;;;;;17.46;87.50;101450.44;6094606;19;20040;-70
2023/08/04 08:07:33;;;;;;;4.55;2.00;;;;;;;17.40;87.78;101453.44;6101375;19;20019;-72
2023/08/04 08:09:49;;;;;;;7.57;2.50;;;;;;;17.41;88.75;101452.53;6093923;19;20051;-71
2023/08/04 08:11:54;;;;;;;5.35;1.80;;;;;;;17.32;89.54;101453.06;6093578;19;20011;-70
2023/08/04 08:13:59;;;;;;;7.85;2.65;;;;;;;17.33;88.69;101452.13;6088713;19;20682;-69
2023/08/04 08:16:10;;;;;;;5.50;2.10;;;;;;;17.32;88.04;101459.25;6079994;19;20007;-71
2023/08/04 08:18:15;;;;;;;8.45;2.22;;;;;;;17.34;88.12;101460.00;6102144;19;20034;-70
2023/08/04 08:20:17;;;;;;;8.68;2.10;;;;;;;17.48;87.84;101460.97;6094928;19;20010;-70
2023/08/04 08:22:25;;;;;;;9.25;2.33;;;;;;;17.64;87.73;101472.41;6092576;19;20018;-71
2023/08/04 08:24:30;;;;;;;5.47;2.10;;;;;;;18.38;85.67;101460.78;6093905;19;20010;-70
2023/08/04 08:26:35;;;;;;;4.63;2.08;;;;;;;18.49;81.66;101464.56;6094111;19;20078;-69
2023/08/04 08:28:40;;;;;;;6.10;2.10;;;;;;;18.96;81.52;101458.84;6094634;19;20010;-70
2023/08/04 08:30:45;;;;;;;3.42;2.13;;;;;;;18.54;79.45;101462.47;6096214;19;20046;-70
2023/08/04 08:32:50;;;;;;;3.60;1.60;;;;;;;18.35;81.14;101471.63;6099931;19;20014;-69
2023/08/04 08:34:55;;;;;;;8.32;1.88;;;;;;;18.46;81.12;101468.28;6096567;19;20025;-69
2023/08/04 08:37:01;;;;;;;5.82;2.08;;;;;;;19.07;78.66;101469.63;6098976;19;20089;-69
2023/08/04 08:39:08;;;;;;;4.50;1.60;;;;;;;19.14;77.39;101471.88;6094396;19;20010;-69
2023/08/04 08:41:13;;;;;;;7.88;1.90;;;;;;;19.04;75.89;101477.00;6095405;19;20014;-70
2023/08/04 08:43:18;;;;;;;2.92;1.98;;;;;;;18.83;75.78;101480.09;6092527;19;20434;-70
2023/08/04 08:45:27;;;;;;;6.70;1.80;;;;;;;18.86;77.83;101482.56;6097518;19;20021;-70
2023/08/04 08:47:37;;;;;;;5.80;1.63;;;;;;;18.34;75.55;101472.56;6097260;19;20642;-70
2023/08/04 08:49:45;;;;;;;2.80;1.63;;;;;;;18.47;76.12;101474.44;6093372;19;20002;-69
2023/08/04 08:51:52;;;;;;;5.00;1.45;;;;;;;18.48;76.89;101484.13;6094205;19;20003;-70
2023/08/04 08:53:59;;;;;;;2.13;1.63;;;;;;;18.76;74.44;101484.09;6092864;19;20068;-70
2023/08/04 08:56:09;;;;;;;6.15;1.75;;;;;;;18.98;74.39;101485.38;6093097;19;20372;-70
2023/08/04 08:58:14;;;;;;;3.38;1.70;;;;;;;19.21;73.01;101484.69;6099380;19;20006;-70
2023/08/04 09:00:20;;;;;;;3.47;1.67;;;;;;;19.27;74.08;101484.31;6100802;19;20015;-70
2023/08/04 09:02:23;;;;;;;5.68;1.50;;;;;;;19.45;72.86;101487.53;6097283;19;20039;-69
2023/08/04 09:04:29;;;;;;;5.40;1.80;;;;;;;19.67;72.45;101483.47;6095400;19;20031;-70
2023/08/04 09:06:34;;;;;;;4.18;1.70;;;;;;;19.75;71.93;101494.44;6095728;19;20250;-70
2023/08/04 09:08:39;;;;;;;5.03;1.60;;;;;;;20.01;69.18;101491.75;6097596;19;20018;-71
2023/08/04 09:10:52;;;;;;;4.38;1.85;;;;;;;20.09;67.12;101489.41;6096652;19;20034;-71
2023/08/04 09:13:00;;;;;;;2.38;1.70;;;;;;;20.78;66.93;101492.53;6098703;19;20027;-72
2023/08/04 09:15:06;;;;;;;1.40;1.30;;;;;;;20.58;65.35;101493.97;6093728;19;20019;-71
2023/08/04 09:17:12;;;;;;;3.35;1.33;;;;;;;20.06;67.32;101497.63;6095947;19;20807;-70
2023/08/04 09:19:17;;;;;;;5.95;1.70;;;;;;;19.69;70.27;101506.38;6097180;19;20422;-70
2023/08/04 09:21:22;;;;;;;4.40;1.60;;;;;;;19.14;73.49;101507.41;6097052;19;20340;-70
2023/08/04 09:23:28;;;;;;;5.63;1.65;;;;;;;18.51;75.20;101507.88;6097374;19;20014;-71
2023/08/04 09:25:33;;;;;;;3.15;1.55;;;;;;;18.35;74.92;101506.22;6091650;19;20036;-72
2023/08/04 09:27:41;;;;;;;9.68;1.83;;;;;;;18.65;75.58;101514.06;6099826;19;20006;-72
2023/08/04 09:29:56;;;;;;;6.72;1.85;;;;;;;18.82;74.92;101509.47;6094071;19;20341;-70
2023/08/04 09:32:14;;;;;;;3.50;1.45;;;;;;;18.76;74.41;101508.06;6092355;19;20010;-71
2023/08/04 09:34:19;;;;;;;5.78;1.55;;;;;;;19.68;72.01;101510.00;6097039;19;20011;-71
2023/08/04 09:36:23;;;;;;;4.68;1.55;;;;;;;19.50;71.36;101511.22;6092168;19;20018;-70
2023/08/04 09:38:29;;;;;;;2.95;1.63;;;;;;;19.95;70.91;101517.06;6097318;19;20018;-71
2023/08/04 09:40:37;;;;;;;5.03;1.80;;;;;;;20.10;69.75;101516.00;6076893;19;20011;-71
2023/08/04 09:42:42;;;;;;;4.18;1.70;;;;;;;19.25;71.59;101512.88;6099841;19;20019;-71
2023/08/04 09:44:55;;;;;;;2.75;1.58;;;;;;;18.79;74.56;101504.34;6097119;19;20014;-71